createdAt,value
2022-11-04T00:00:33.699Z,99986.16
2022-11-04T00:03:02.539Z,99988.75
2022-11-04T00:05:46.236Z,99988.75
2022-11-04T00:08:50.236Z,100003.50
2022-11-04T00:11:46.571Z,100000.91
2022-11-04T00:14:20.521Z,99998.25
2022-11-04T00:17:07.814Z,100001.75
2022-11-04T00:19:56.112Z,100006.94
2022-11-04T00:22:46.471Z,100015.66
2022-11-04T00:25:56.516Z,100014.78
2022-11-04T00:28:40.713Z,100017.41
2022-11-04T00:31:27.925Z,100020.88
2022-11-04T00:33:57.676Z,100020.00
2022-11-04T00:36:25.890Z,100021.72
2022-11-04T00:38:52.928Z,100028.66
2022-11-04T00:41:31.076Z,100027.78
2022-11-04T00:44:07.497Z,100035.59
2022-11-04T00:46:34.936Z,100039.06
2022-11-04T00:49:01.876Z,100044.28
2022-11-04T00:51:29.420Z,100045.16
2022-11-04T00:53:58.359Z,100044.25
2022-11-04T00:56:25.407Z,100047.78
2022-11-04T00:58:59.854Z,100050.41
2022-11-04T01:01:27.008Z,100053.88
2022-11-04T01:03:54.553Z,100059.06
2022-11-04T01:06:48.935Z,100071.25
2022-11-04T01:12:28.347Z,100079.91
2022-11-04T01:17:47.809Z,100090.31
2022-11-04T01:20:16.484Z,100092.03
2022-11-04T01:22:46.087Z,100082.47
2022-11-04T01:25:26.872Z,100097.25
2022-11-04T01:28:07.620Z,100106.84
2022-11-04T01:30:40.767Z,100105.09
2022-11-04T01:33:30.279Z,100121.59
2022-11-04T01:36:12.675Z,100123.31
2022-11-04T01:38:39.978Z,100125.91
2022-11-04T01:41:08.419Z,100136.28
2022-11-04T01:43:59.598Z,100132.78
2022-11-04T01:46:34.678Z,100133.56
2022-11-04T01:49:22.685Z,100140.44
2022-11-04T01:51:52.545Z,100137.72
2022-11-04T01:54:20.313Z,100151.59
2022-11-04T01:56:49.550Z,100136.72
2022-11-04T01:59:26.420Z,100145.44
2022-11-04T02:01:54.415Z,100141.03
2022-11-04T02:04:36.323Z,100137.50
2022-11-04T02:07:11.191Z,100145.31
2022-11-04T02:09:40.846Z,100147.91
2022-11-04T02:12:26.382Z,100160.94
2022-11-04T02:14:54.683Z,100161.00
2022-11-04T02:17:39.717Z,100162.69
2022-11-04T02:20:17.953Z,100173.97
2022-11-04T02:23:06.552Z,100167.81
2022-11-04T02:25:43.781Z,100172.13
2022-11-04T02:28:21.270Z,100180.75
2022-11-04T02:31:15.676Z,100178.09
2022-11-04T02:33:54.175Z,100187.59
2022-11-04T02:36:40.084Z,100194.50
2022-11-04T02:39:25.992Z,100196.22
2022-11-04T02:42:04.753Z,100204.00
2022-11-04T02:44:50.425Z,100202.25
2022-11-04T02:47:22.417Z,100208.34
2022-11-04T02:49:58.845Z,100208.38
2022-11-04T02:52:54.265Z,100204.00
2022-11-04T02:55:29.923Z,100216.19
2022-11-04T02:58:00.714Z,100223.13
2022-11-04T03:00:29.625Z,100223.13
2022-11-04T03:03:10.397Z,100215.28
2022-11-04T03:05:42.206Z,100232.75
2022-11-04T03:08:18.351Z,100230.13
2022-11-04T03:10:59.236Z,100229.22
2022-11-04T03:13:56.527Z,100244.03
2022-11-04T03:17:11.317Z,100250.13
2022-11-04T03:20:17.767Z,100249.19
2022-11-04T03:22:53.690Z,100256.13
2022-11-04T03:25:38.985Z,100255.19
2022-11-04T03:28:30.834Z,100260.41
2022-11-04T03:35:07.821Z,100263.66
2022-11-04T03:43:28.660Z,100275.44
2022-11-04T04:02:52.251Z,100294.81
2022-11-04T04:05:38.093Z,100291.22
2022-11-04T04:08:27.341Z,100292.00
2022-11-04T04:11:12.466Z,100295.31
2022-11-04T04:14:39.467Z,100297.78
2022-11-04T04:17:38.815Z,100296.75
2022-11-04T04:20:15.980Z,100301.84
2022-11-04T04:22:59.497Z,100311.34
2022-11-04T04:25:47.172Z,100300.09
2022-11-04T04:28:21.063Z,100303.56
2022-11-04T04:30:50.738Z,100311.41
2022-11-04T04:33:19.566Z,100298.53
2022-11-04T04:35:57.599Z,100310.81
2022-11-04T04:38:48.588Z,100305.69
2022-11-04T04:41:43.529Z,100304.81
2022-11-04T04:44:37.029Z,100311.72
2022-11-04T04:47:07.158Z,100313.41
2022-11-04T04:49:57.128Z,100322.88
2022-11-04T04:52:27.028Z,100314.13
2022-11-04T04:54:54.066Z,100317.53
2022-11-04T04:57:22.901Z,100326.13
2022-11-04T04:59:50.297Z,100326.06
2022-11-04T05:02:19.247Z,100331.22
2022-11-04T05:04:56.825Z,100325.94
2022-11-04T05:07:40.211Z,100331.94
2022-11-04T05:10:21.197Z,100336.22
2022-11-04T05:13:09.121Z,100341.38
2022-11-04T05:15:36.113Z,100336.06
2022-11-04T05:18:07.651Z,100342.97
2022-11-04T05:20:38.271Z,100348.13
2022-11-04T05:23:07.996Z,100337.69
2022-11-04T05:25:36.922Z,100334.13
2022-11-04T05:28:06.150Z,100337.53
2022-11-04T05:30:33.684Z,100342.69
2022-11-04T05:33:04.625Z,100354.81
2022-11-04T05:35:39.956Z,100349.53
2022-11-04T05:38:08.292Z,100368.50
2022-11-04T05:40:35.706Z,100368.34
2022-11-04T05:43:03.440Z,100370.03
2022-11-04T05:45:30.738Z,100364.75
2022-11-04T05:50:50.033Z,100374.91
2022-11-04T05:53:17.384Z,100381.88
2022-11-04T05:55:46.537Z,100384.38
2022-11-04T05:58:14.508Z,100398.16
2022-11-04T06:00:41.865Z,100395.41
2022-11-04T06:03:15.262Z,100404.84
2022-11-04T06:05:43.004Z,100406.41
2022-11-04T06:08:10.235Z,100418.41
2022-11-04T06:10:37.158Z,100420.88
2022-11-04T06:13:04.188Z,100420.84
2022-11-04T06:15:31.337Z,100425.09
2022-11-04T06:17:58.257Z,100424.31
2022-11-04T06:20:25.173Z,100425.22
2022-11-04T06:22:52.124Z,100433.81
2022-11-04T06:25:18.848Z,100432.91
2022-11-04T06:27:46.082Z,100435.50
2022-11-04T06:30:12.974Z,100437.25
2022-11-04T06:32:39.962Z,100435.50
2022-11-04T06:35:08.910Z,100437.25
2022-11-04T06:37:36.158Z,100441.59
2022-11-04T06:40:02.675Z,100442.44
2022-11-04T06:42:29.964Z,100439.00
2022-11-04T06:44:56.915Z,100440.75
2022-11-04T06:47:25.083Z,100439.81
2022-11-04T06:49:51.919Z,100453.63
2022-11-04T06:52:19.141Z,100454.50
2022-11-04T06:54:47.731Z,100450.09
2022-11-04T06:57:14.745Z,100454.34
2022-11-04T06:59:42.070Z,100458.66
2022-11-04T07:02:11.307Z,100456.09
2022-11-04T07:04:38.379Z,100458.75
2022-11-04T07:07:05.985Z,100458.75
2022-11-04T07:09:32.736Z,100456.91
2022-11-04T07:11:59.746Z,100463.03
2022-11-04T07:14:33.338Z,100459.69
2022-11-04T07:16:59.752Z,100461.47
2022-11-04T07:19:26.355Z,100459.72
2022-11-04T07:21:53.101Z,100468.31
2022-11-04T07:24:22.482Z,100469.41
2022-11-04T07:26:51.294Z,100473.41
2022-11-04T07:35:28.043Z,100471.13
2022-11-04T08:08:02.758Z,100518.56
2022-11-04T08:10:49.226Z,100513.84
2022-11-04T08:13:18.402Z,100529.09
2022-11-04T08:16:06.640Z,100528.78
2022-11-04T08:18:38.292Z,100543.31
2022-11-04T08:21:29.895Z,100541.63
2022-11-04T08:24:19.261Z,100547.78
2022-11-04T08:26:46.447Z,100545.25
2022-11-04T08:29:33.033Z,100551.34
2022-11-04T08:32:23.871Z,100549.53
2022-11-04T08:35:12.131Z,100559.00
2022-11-04T08:37:39.743Z,100558.88
2022-11-04T08:40:27.216Z,100561.50
2022-11-04T08:43:13.940Z,100579.75
2022-11-04T08:45:45.411Z,100578.13
2022-11-04T08:48:13.369Z,100579.06
2022-11-04T08:50:40.525Z,100581.81
2022-11-04T08:53:27.027Z,100578.44
2022-11-04T08:55:53.977Z,100587.16
2022-11-04T09:02:16.147Z,100592.56
2022-11-04T09:04:43.848Z,100588.09
2022-11-04T09:07:10.640Z,100600.19
2022-11-04T09:09:40.854Z,100590.09
2022-11-04T09:15:42.926Z,100600.34
2022-11-04T09:18:48.498Z,100606.53
2022-11-04T09:24:07.700Z,100613.94
2022-11-04T09:26:41.790Z,100609.41
2022-11-04T09:30:14.931Z,100626.81
2022-11-04T09:32:18.519Z,100617.72
2022-11-04T09:34:45.888Z,100627.78
2022-11-04T09:37:12.698Z,100636.22
2022-11-04T09:39:39.954Z,100627.09
2022-11-04T09:42:24.708Z,100636.81
2022-11-04T09:45:20.183Z,100627.78
2022-11-04T09:47:46.338Z,100633.84
2022-11-04T09:50:19.297Z,100643.50
2022-11-04T09:52:49.293Z,100644.31
2022-11-04T09:55:24.287Z,100651.94
2022-11-04T10:01:07.475Z,100650.59
2022-11-04T10:03:38.473Z,100646.38
2022-11-04T10:06:24.195Z,100655.03
2022-11-04T10:08:53.387Z,100660.16
2022-11-04T10:11:22.990Z,100668.72
2022-11-04T10:13:49.409Z,100665.03
2022-11-04T10:16:31.882Z,100679.66
2022-11-04T10:19:08.832Z,100683.81
2022-11-04T10:21:53.159Z,100691.50
2022-11-04T10:24:46.155Z,100694.00
2022-11-04T10:27:32.735Z,100692.91
2022-11-04T10:30:03.969Z,100689.16
2022-11-04T10:32:38.585Z,100694.38
2022-11-04T10:35:24.272Z,100689.13
2022-11-04T10:37:54.657Z,100697.78
2022-11-04T10:40:25.664Z,100700.38
2022-11-04T10:42:53.523Z,100693.38
2022-11-04T10:45:22.494Z,100696.84
2022-11-04T10:47:57.884Z,100697.63
2022-11-04T10:50:42.618Z,100697.66
2022-11-04T10:53:14.763Z,100705.50
2022-11-04T10:55:45.399Z,100714.38
2022-11-04T10:58:15.351Z,100715.31
2022-11-04T11:00:42.201Z,100718.00
2022-11-04T11:03:28.938Z,100728.63
2022-11-04T11:06:13.498Z,100732.25
2022-11-04T11:08:41.488Z,100740.09
2022-11-04T11:11:09.594Z,100746.16
2022-11-04T11:13:37.697Z,100760.03
2022-11-04T11:16:06.691Z,100759.06
2022-11-04T11:18:38.764Z,100746.75
2022-11-04T11:21:08.942Z,100740.63
2022-11-04T11:23:37.603Z,100741.41
2022-11-04T11:26:39.844Z,100739.63
2022-11-04T11:29:14.598Z,100744.25
2022-11-04T11:31:49.746Z,100744.88
2022-11-04T11:34:21.274Z,100742.09
2022-11-04T11:36:49.906Z,100747.59
2022-11-04T11:39:19.563Z,100743.50
2022-11-04T11:41:54.602Z,100747.06
2022-11-04T11:44:33.820Z,100742.69
2022-11-04T11:47:02.954Z,100746.19
2022-11-04T11:49:31.550Z,100745.31
2022-11-04T11:52:17.599Z,100754.97
2022-11-04T11:54:47.217Z,100749.59
2022-11-04T11:57:39.239Z,100737.84
2022-11-04T12:03:21.335Z,100741.88
2022-11-04T12:12:46.408Z,100764.59
2022-11-04T12:15:18.934Z,100774.28
2022-11-04T12:17:59.788Z,100768.97
2022-11-04T12:20:33.551Z,100779.41
2022-11-04T12:23:22.714Z,100777.53
2022-11-04T12:26:04.185Z,100775.69
2022-11-04T12:28:57.663Z,100774.75
2022-11-04T12:31:44.212Z,100779.91
2022-11-04T12:34:16.261Z,100775.44
2022-11-04T12:36:55.897Z,100779.75
2022-11-04T12:39:38.507Z,100789.38
2022-11-04T12:42:22.977Z,100798.94
2022-11-04T12:45:10.024Z,100797.13
2022-11-04T12:47:44.695Z,100799.72
2022-11-04T12:50:26.867Z,100803.19
2022-11-04T12:53:08.343Z,100815.34
2022-11-04T12:55:44.280Z,100821.44
2022-11-04T12:58:58.725Z,100823.19
2022-11-04T13:02:08.502Z,100815.34
2022-11-04T13:05:13.520Z,100817.00
2022-11-04T13:11:21.040Z,100818.59
2022-11-04T13:13:50.355Z,100821.25
2022-11-04T13:16:17.555Z,100815.09
2022-11-04T13:18:49.434Z,100816.84
2022-11-04T13:21:18.982Z,100822.16
2022-11-04T13:23:52.707Z,100832.63
2022-11-04T13:26:22.216Z,100837.88
2022-11-04T13:28:56.384Z,100837.00
2022-11-04T13:31:28.616Z,100844.88
2022-11-04T13:34:01.128Z,100857.13
2022-11-04T13:36:29.726Z,100859.75
2022-11-04T13:38:56.798Z,100857.09
2022-11-04T13:41:23.296Z,100864.78
2022-11-04T13:43:56.445Z,100869.78
2022-11-04T13:46:23.842Z,100865.03
2022-11-04T13:48:50.995Z,100881.84
2022-11-04T13:51:19.264Z,100885.56
2022-11-04T13:53:56.696Z,100905.97
2022-11-04T13:56:34.613Z,100905.47
2022-11-04T13:59:22.512Z,100912.09
2022-11-04T14:01:49.840Z,100914.47
2022-11-04T14:04:26.905Z,100917.88
2022-11-04T14:07:01.972Z,100929.91
2022-11-04T14:09:35.750Z,100917.59
2022-11-04T14:12:14.138Z,100915.81
2022-11-04T14:14:41.796Z,100919.34
2022-11-04T14:17:27.082Z,100924.63
2022-11-04T14:19:56.535Z,100921.13
2022-11-04T14:22:28.556Z,100916.00
2022-11-04T14:24:59.634Z,100926.53
2022-11-04T14:27:28.189Z,100931.69
2022-11-04T14:29:54.998Z,100927.31
2022-11-04T14:32:25.809Z,100931.66
2022-11-04T14:35:00.462Z,100929.16
2022-11-04T14:37:30.851Z,100923.06
2022-11-04T14:39:59.376Z,100930.88
2022-11-04T14:43:01.602Z,100927.38
2022-11-04T14:45:38.948Z,100937.09
2022-11-04T14:48:20.528Z,100944.94
2022-11-04T14:50:49.728Z,100951.16
2022-11-04T14:53:22.200Z,100960.84
2022-11-04T14:56:02.290Z,100967.00
2022-11-04T14:58:29.206Z,100968.66
2022-11-04T15:01:00.777Z,100974.81
2022-11-04T15:04:09.319Z,100978.31
2022-11-04T15:06:34.762Z,100979.13
2022-11-04T15:09:27.627Z,100985.97
2022-11-04T15:12:23.482Z,100984.09
2022-11-04T15:14:52.776Z,100991.91
2022-11-04T15:17:20.636Z,100995.34
2022-11-04T15:19:51.520Z,101008.22
2022-11-04T15:22:18.707Z,100999.47
2022-11-04T15:24:46.098Z,101007.28
2022-11-04T15:27:15.134Z,101013.31
2022-11-04T15:29:53.286Z,101018.38
2022-11-04T15:32:20.347Z,101025.28
2022-11-04T15:34:47.496Z,101021.69
2022-11-04T15:37:14.571Z,101018.81
2022-11-04T15:39:43.864Z,101020.31
2022-11-04T15:42:35.924Z,101020.13
2022-11-04T15:45:18.483Z,101023.44
2022-11-04T15:47:45.898Z,101025.09
2022-11-04T15:50:21.588Z,101022.41
2022-11-04T15:52:50.909Z,101032.66
2022-11-04T15:55:22.194Z,101028.22
2022-11-04T15:57:50.299Z,101024.66
2022-11-04T16:00:16.960Z,101029.84
2022-11-04T16:02:48.788Z,101033.25
2022-11-04T16:05:17.550Z,101044.44
2022-11-04T16:07:45.150Z,101046.97
2022-11-04T16:10:20.564Z,101055.44
2022-11-04T16:12:47.273Z,101059.47
2022-11-04T16:15:34.495Z,101062.44
2022-11-04T16:18:01.301Z,101056.09
2022-11-04T16:20:27.873Z,101063.75
2022-11-04T16:22:59.359Z,101068.97
2022-11-04T16:25:29.107Z,101061.78
2022-11-04T16:27:55.585Z,101065.16
2022-11-04T16:30:23.606Z,101065.22
2022-11-04T16:32:51.333Z,101074.72
2022-11-04T16:35:23.020Z,101072.06
2022-11-04T16:37:50.841Z,101076.44
2022-11-04T16:40:18.431Z,101085.09
2022-11-04T16:42:46.517Z,101082.38
2022-11-04T16:45:25.583Z,101096.34
2022-11-04T16:47:52.928Z,101096.34
2022-11-04T16:50:20.014Z,101098.91
2022-11-04T16:52:46.690Z,101093.63
2022-11-04T16:55:14.350Z,101104.81
2022-11-04T16:57:41.582Z,101106.47
2022-11-04T17:00:09.105Z,101111.56
2022-11-04T17:02:41.328Z,101123.75
2022-11-04T17:05:09.041Z,101127.22
2022-11-04T17:07:52.055Z,101120.09
2022-11-04T17:10:26.832Z,101121.59
2022-11-04T17:12:53.422Z,101122.44
2022-11-04T17:15:21.501Z,101118.06
2022-11-04T17:17:48.581Z,101123.38
2022-11-04T17:20:17.735Z,101122.44
2022-11-04T17:22:45.272Z,101127.53
2022-11-04T17:25:16.745Z,101141.50
2022-11-04T17:27:44.883Z,101151.97
2022-11-04T17:30:13.524Z,101156.38
2022-11-04T17:32:46.817Z,101163.19
2022-11-04T17:35:14.725Z,101153.63
2022-11-04T17:37:41.976Z,101156.00
2022-11-04T17:40:12.030Z,101166.38
2022-11-04T17:42:59.052Z,101163.72
2022-11-04T17:45:26.772Z,101164.72
2022-11-04T17:47:53.608Z,101162.94
2022-11-04T17:50:20.794Z,101174.16
2022-11-04T17:52:49.304Z,101173.31
2022-11-04T17:55:18.797Z,101176.69
2022-11-04T17:57:47.502Z,101172.22
2022-11-04T18:00:14.926Z,101180.81
2022-11-04T18:02:42.252Z,101179.13
2022-11-04T18:05:09.230Z,101172.22
2022-11-04T18:07:36.568Z,101173.13
2022-11-04T18:10:06.259Z,101180.13
2022-11-04T18:12:38.824Z,101184.56
2022-11-04T18:15:06.797Z,101195.81
2022-11-04T18:17:37.158Z,101187.66
2022-11-04T18:20:07.116Z,101204.63
2022-11-04T18:22:36.787Z,101199.97
2022-11-04T18:25:04.320Z,101203.63
2022-11-04T18:27:33.504Z,101206.25
2022-11-04T18:30:01.299Z,101205.28
2022-11-04T18:32:28.701Z,101206.97
2022-11-04T18:34:55.262Z,101213.69
2022-11-04T18:37:23.377Z,101202.31
2022-11-04T18:39:50.647Z,101216.97
2022-11-04T18:42:17.108Z,101218.59
2022-11-04T18:44:43.671Z,101220.22
2022-11-04T18:47:10.578Z,101225.34
2022-11-04T18:49:38.282Z,101218.34
2022-11-04T18:52:05.580Z,101229.66
2022-11-04T18:54:32.394Z,101235.75
2022-11-04T18:56:59.106Z,101239.09
2022-11-04T18:59:26.052Z,101238.94
2022-11-04T19:01:53.595Z,101237.00
2022-11-04T19:04:20.296Z,101244.75
2022-11-04T19:06:47.256Z,101240.28
2022-11-04T19:12:21.862Z,101245.34
2022-11-04T19:14:48.316Z,101246.06
2022-11-04T19:17:17.517Z,101247.81
2022-11-04T19:19:44.224Z,101248.66
2022-11-04T19:22:11.046Z,101252.84
2022-11-04T19:24:40.206Z,101254.50
2022-11-04T19:27:07.354Z,101249.31
2022-11-04T19:29:33.874Z,101248.41
2022-11-04T19:32:01.031Z,101251.91
2022-11-04T19:34:27.857Z,101253.63
2022-11-04T19:36:54.822Z,101258.00
2022-11-04T19:39:21.522Z,101258.81
2022-11-04T19:42:09.416Z,101267.44
2022-11-04T19:44:35.866Z,101263.03
2022-11-04T19:47:02.727Z,101276.00
2022-11-04T19:49:31.777Z,101281.22
2022-11-04T19:51:58.720Z,101279.50
2022-11-04T19:54:25.941Z,101277.59
2022-11-04T19:56:52.997Z,101272.13
2022-11-04T19:59:20.108Z,101278.72
2022-11-04T20:01:47.144Z,101276.06
2022-11-04T20:04:13.967Z,101276.97
2022-11-04T20:06:40.411Z,101289.88
2022-11-04T20:09:08.322Z,101297.28
2022-11-04T20:11:35.766Z,101287.66
2022-11-04T20:14:08.044Z,101286.03
2022-11-04T20:16:39.626Z,101295.53
2022-11-04T20:19:08.488Z,101293.63
2022-11-04T20:21:36.495Z,101296.03
2022-11-04T20:24:04.947Z,101296.81
2022-11-04T20:26:32.648Z,101297.63
2022-11-04T20:28:59.566Z,101309.72
2022-11-04T20:31:27.498Z,101314.84
2022-11-04T20:33:54.543Z,101324.38
2022-11-04T20:36:22.146Z,101327.66
2022-11-04T20:38:48.609Z,101329.38
2022-11-04T20:41:18.979Z,101331.91
2022-11-04T20:43:47.290Z,101333.59
2022-11-04T20:46:15.694Z,101339.63
2022-11-04T20:48:42.208Z,101348.38
2022-11-04T20:51:11.686Z,101349.16
2022-11-04T20:53:38.973Z,101352.59
2022-11-04T20:56:10.474Z,101368.94
2022-11-04T20:58:45.128Z,101373.16
2022-11-04T21:01:16.674Z,101364.38
2022-11-04T21:03:49.516Z,101361.78
2022-11-04T21:06:16.689Z,101370.41
2022-11-04T21:08:44.060Z,101374.69
2022-11-04T21:11:11.457Z,101377.28
2022-11-04T21:13:40.820Z,101382.53
2022-11-04T21:16:10.763Z,101376.53
2022-11-04T21:18:38.738Z,101391.16
2022-11-04T21:21:10.292Z,101385.97
2022-11-04T21:23:41.860Z,101385.84
2022-11-04T21:26:31.850Z,101391.84
2022-11-04T21:29:03.156Z,101396.97
2022-11-04T21:31:33.487Z,101391.84
2022-11-04T21:34:00.992Z,101397.91
2022-11-04T21:36:28.516Z,101413.50
2022-11-04T21:38:55.117Z,101415.09
2022-11-04T21:41:25.210Z,101412.91
2022-11-04T21:43:55.691Z,101421.28
2022-11-04T21:46:22.665Z,101413.31
2022-11-04T21:48:49.522Z,101423.72
2022-11-04T21:51:18.625Z,101421.22
2022-11-04T21:53:46.290Z,101427.38
2022-11-04T21:56:15.629Z,101437.97
2022-11-04T21:58:46.138Z,101441.59
2022-11-04T22:01:16.955Z,101440.75
2022-11-04T22:03:44.931Z,101445.22
2022-11-04T22:06:13.882Z,101440.03
2022-11-04T22:08:45.067Z,101444.47
2022-11-04T22:11:13.726Z,101450.53
2022-11-04T22:13:43.013Z,101450.13
2022-11-04T22:16:10.740Z,101453.47
2022-11-04T22:18:37.689Z,101460.38
2022-11-04T22:21:06.023Z,101458.75
2022-11-04T22:23:36.204Z,101455.38
2022-11-04T22:26:03.612Z,101455.53
2022-11-04T22:28:31.552Z,101452.94
2022-11-04T22:31:04.452Z,101458.94
2022-11-04T22:33:32.056Z,101454.84
2022-11-04T22:35:59.579Z,101446.38
2022-11-04T22:38:26.542Z,101448.28
2022-11-04T22:40:57.297Z,101454.47
2022-11-04T22:43:25.213Z,101455.53
2022-11-04T22:45:53.160Z,101463.31
2022-11-04T22:48:20.303Z,101466.03
2022-11-04T22:50:47.629Z,101469.66
2022-11-04T22:53:14.573Z,101481.06
2022-11-04T22:55:45.537Z,101470.94
2022-11-04T22:58:12.368Z,101468.47
2022-11-04T23:00:38.978Z,101466.97
2022-11-04T23:03:06.043Z,101469.63
2022-11-04T23:05:33.694Z,101471.47
2022-11-04T23:08:01.133Z,101474.28
2022-11-04T23:10:48.809Z,101474.41
2022-11-04T23:13:38.376Z,101469.38
2022-11-04T23:16:25.263Z,101467.00
2022-11-04T23:18:52.535Z,101479.22
2022-11-04T23:21:41.396Z,101474.16
2022-11-04T23:24:26.623Z,101470.56
2022-11-04T23:26:53.090Z,101478.50
2022-11-04T23:29:38.539Z,101471.78
2022-11-04T23:32:05.282Z,101487.56
2022-11-04T23:34:50.567Z,101483.81
2022-11-04T23:37:19.900Z,101491.31
2022-11-04T23:39:47.843Z,101492.88
2022-11-04T23:42:18.267Z,101478.97
2022-11-04T23:45:08.363Z,101478.91
2022-11-04T23:48:00.710Z,101484.81
2022-11-04T23:50:49.494Z,101489.97
2022-11-04T23:53:35.341Z,101476.91
2022-11-04T23:56:21.424Z,101485.41
2022-11-04T23:59:06.848Z,101493.09
